createdAt,value
2023-04-27T00:01:00.758Z,5.50
2023-04-27T00:03:28.269Z,5.47
2023-04-27T00:05:55.155Z,5.45
2023-04-27T00:08:21.853Z,5.44
2023-04-27T00:10:48.346Z,5.44
2023-04-27T00:13:14.813Z,5.43
2023-04-27T00:15:41.324Z,5.42
2023-04-27T00:18:07.875Z,5.41
2023-04-27T00:20:34.395Z,5.46
2023-04-27T00:23:00.882Z,5.49
2023-04-27T00:25:27.422Z,5.51
2023-04-27T00:27:53.930Z,5.52
2023-04-27T00:30:20.398Z,5.52
2023-04-27T00:32:46.963Z,5.53
2023-04-27T00:35:13.429Z,5.55
2023-04-27T00:37:39.920Z,5.56
2023-04-27T00:40:07.217Z,5.56
2023-04-27T00:42:34.893Z,5.58
2023-04-27T00:45:01.590Z,5.58
2023-04-27T00:47:30.016Z,5.57
2023-04-27T00:49:56.798Z,5.57
2023-04-27T00:52:23.300Z,5.54
2023-04-27T00:54:51.734Z,5.55
2023-04-27T00:57:18.379Z,5.52
2023-04-27T00:59:44.885Z,5.53
2023-04-27T01:02:11.817Z,5.53
2023-04-27T01:04:38.402Z,5.53
2023-04-27T01:07:04.914Z,5.52
2023-04-27T01:09:31.426Z,5.50
2023-04-27T01:11:58.186Z,5.50
2023-04-27T01:14:24.654Z,5.48
2023-04-27T01:16:52.216Z,5.46
2023-04-27T01:19:18.744Z,5.45
2023-04-27T01:21:45.235Z,5.44
2023-04-27T01:24:11.719Z,5.42
2023-04-27T01:26:38.203Z,5.41
2023-04-27T01:29:04.678Z,5.41
2023-04-27T01:31:31.220Z,5.40
2023-04-27T01:33:57.727Z,5.39
2023-04-27T01:36:24.217Z,5.37
2023-04-27T01:38:50.721Z,5.35
2023-04-27T01:41:17.172Z,5.31
2023-04-27T01:43:43.719Z,5.29
2023-04-27T01:46:12.895Z,5.26
2023-04-27T01:48:40.712Z,5.24
2023-04-27T01:51:07.547Z,5.22
2023-04-27T01:53:34.248Z,5.20
2023-04-27T01:56:00.873Z,5.17
2023-04-27T01:58:27.537Z,5.17
2023-04-27T02:00:54.097Z,5.13
2023-04-27T02:03:20.711Z,5.12
2023-04-27T02:05:47.440Z,5.12
2023-04-27T02:08:14.626Z,5.11
2023-04-27T02:10:41.513Z,5.09
2023-04-27T02:13:08.020Z,5.06
2023-04-27T02:15:34.468Z,5.05
2023-04-27T02:18:01.339Z,5.03
2023-04-27T02:20:30.108Z,5.02
2023-04-27T02:22:56.739Z,5.01
2023-04-27T02:25:23.280Z,4.98
2023-04-27T02:27:49.792Z,4.98
2023-04-27T02:30:16.849Z,4.94
2023-04-27T02:32:43.896Z,4.90
2023-04-27T02:35:10.618Z,4.84
2023-04-27T02:37:37.072Z,4.80
2023-04-27T02:40:04.220Z,4.77
2023-04-27T02:42:30.657Z,4.75
2023-04-27T02:44:57.149Z,4.74
2023-04-27T02:47:23.672Z,4.72
2023-04-27T02:49:50.166Z,4.70
2023-04-27T02:52:16.763Z,4.68
2023-04-27T02:54:43.256Z,4.64
2023-04-27T02:57:09.748Z,4.59
2023-04-27T02:59:36.225Z,4.55
2023-04-27T03:02:02.702Z,4.50
2023-04-27T03:04:29.216Z,4.48
2023-04-27T03:06:55.731Z,4.46
2023-04-27T03:09:22.198Z,4.43
2023-04-27T03:11:48.668Z,4.40
2023-04-27T03:14:15.148Z,4.36
2023-04-27T03:16:41.712Z,4.35
2023-04-27T03:19:08.214Z,4.34
2023-04-27T03:21:34.667Z,4.33
2023-04-27T03:24:01.173Z,4.31
2023-04-27T03:26:27.770Z,4.30
2023-04-27T03:28:54.234Z,4.27
2023-04-27T03:31:20.801Z,4.25
2023-04-27T03:33:47.335Z,4.24
2023-04-27T03:36:13.982Z,4.22
2023-04-27T03:38:40.506Z,4.21
2023-04-27T03:41:07.052Z,4.19
2023-04-27T03:43:33.567Z,4.17
2023-04-27T03:46:00.115Z,4.16
2023-04-27T03:48:26.681Z,4.15
2023-04-27T03:50:53.148Z,4.14
2023-04-27T03:53:19.613Z,4.14
2023-04-27T03:55:46.106Z,4.17
2023-04-27T03:58:12.724Z,4.19
2023-04-27T04:00:39.962Z,4.20
2023-04-27T04:03:07.292Z,4.20
2023-04-27T04:05:34.217Z,4.20
2023-04-27T04:08:00.743Z,4.20
2023-04-27T04:10:27.208Z,4.22
2023-04-27T04:12:53.659Z,4.21
2023-04-27T04:15:20.240Z,4.21
2023-04-27T04:17:46.762Z,4.27
2023-04-27T04:20:13.705Z,4.30
2023-04-27T04:22:40.227Z,4.34
2023-04-27T04:25:07.226Z,4.40
2023-04-27T04:27:33.753Z,4.44
2023-04-27T04:30:00.590Z,4.48
2023-04-27T04:32:27.462Z,4.53
2023-04-27T04:34:53.933Z,4.57
2023-04-27T04:37:20.395Z,4.60
2023-04-27T04:39:46.865Z,4.64
2023-04-27T04:42:13.432Z,4.68
2023-04-27T04:44:39.895Z,4.73
2023-04-27T04:47:06.363Z,4.78
2023-04-27T04:49:32.832Z,4.83
2023-04-27T04:51:59.389Z,4.88
2023-04-27T04:54:25.832Z,4.92
2023-04-27T04:56:52.281Z,4.96
2023-04-27T04:59:18.777Z,5.02
2023-04-27T05:01:45.248Z,5.08
2023-04-27T05:04:11.944Z,5.14
2023-04-27T05:06:38.613Z,5.23
2023-04-27T05:09:05.096Z,5.31
2023-04-27T05:11:31.688Z,5.39
2023-04-27T05:13:58.138Z,5.48
2023-04-27T05:16:24.674Z,5.57
2023-04-27T05:18:51.181Z,5.67
2023-04-27T05:21:17.828Z,5.77
2023-04-27T05:23:44.329Z,5.88
2023-04-27T05:26:15.387Z,5.99
2023-04-27T05:28:42.605Z,6.10
2023-04-27T05:31:09.305Z,6.20
2023-04-27T05:33:35.798Z,6.27
2023-04-27T05:36:02.433Z,6.37
2023-04-27T05:38:28.891Z,6.42
2023-04-27T05:40:58.452Z,6.46
2023-04-27T05:43:25.591Z,6.51
2023-04-27T05:45:52.891Z,6.57
2023-04-27T05:48:20.028Z,6.65
2023-04-27T05:50:46.630Z,6.74
2023-04-27T05:53:13.110Z,6.82
2023-04-27T05:55:39.599Z,6.88
2023-04-27T05:58:08.647Z,6.97
2023-04-27T06:00:35.946Z,7.07
2023-04-27T06:03:02.589Z,7.17
2023-04-27T06:05:29.317Z,7.28
2023-04-27T06:07:55.893Z,7.38
2023-04-27T06:10:22.478Z,7.48
2023-04-27T06:12:48.975Z,7.59
2023-04-27T06:15:15.504Z,7.72
2023-04-27T06:17:42.074Z,7.84
2023-04-27T06:20:08.796Z,7.98
2023-04-27T06:22:38.859Z,8.14
2023-04-27T06:25:06.256Z,8.31
2023-04-27T06:27:33.598Z,8.48
2023-04-27T06:30:00.066Z,8.67
2023-04-27T06:32:26.633Z,8.91
2023-04-27T06:34:53.116Z,9.18
2023-04-27T06:37:19.647Z,9.39
2023-04-27T06:39:46.846Z,9.57
2023-04-27T06:42:13.523Z,9.77
2023-04-27T06:44:40.064Z,9.97
2023-04-27T06:47:06.597Z,10.14
2023-04-27T06:49:33.087Z,10.32
2023-04-27T06:52:02.100Z,10.48
2023-04-27T06:54:28.652Z,10.64
2023-04-27T06:56:55.145Z,10.74
2023-04-27T06:59:21.698Z,10.81
2023-04-27T07:01:48.246Z,10.83
2023-04-27T07:04:15.016Z,10.81
2023-04-27T07:06:41.587Z,10.84
2023-04-27T07:09:13.493Z,10.83
2023-04-27T07:11:52.881Z,10.81
2023-04-27T07:14:19.392Z,10.80
2023-04-27T07:16:45.852Z,10.80
2023-04-27T07:19:12.679Z,10.83
2023-04-27T07:21:39.472Z,10.89
2023-04-27T07:24:06.296Z,10.94
2023-04-27T07:26:32.737Z,10.98
2023-04-27T07:28:59.260Z,11.02
2023-04-27T07:31:25.794Z,11.08
2023-04-27T07:33:52.242Z,11.13
2023-04-27T07:36:18.816Z,11.15
2023-04-27T07:38:45.369Z,11.14
2023-04-27T07:41:11.857Z,11.14
2023-04-27T07:43:38.342Z,11.18
2023-04-27T07:46:04.999Z,11.27
2023-04-27T07:48:31.489Z,11.37
2023-04-27T07:50:58.116Z,11.47
2023-04-27T07:53:24.650Z,11.58
2023-04-27T07:55:51.108Z,11.69
2023-04-27T07:58:18.109Z,11.83
2023-04-27T08:00:44.639Z,12.00
2023-04-27T08:03:11.303Z,12.21
2023-04-27T08:05:38.359Z,12.43
2023-04-27T08:08:05.662Z,12.63
2023-04-27T08:10:32.287Z,12.85
2023-04-27T08:12:58.766Z,13.09
2023-04-27T08:15:25.379Z,13.19
2023-04-27T08:17:51.820Z,13.29
2023-04-27T08:20:18.394Z,13.33
2023-04-27T08:22:44.892Z,13.38
2023-04-27T08:25:11.374Z,13.51
2023-04-27T08:27:39.062Z,13.59
2023-04-27T08:30:06.287Z,13.62
2023-04-27T08:32:32.828Z,13.70
2023-04-27T08:34:59.502Z,13.80
2023-04-27T08:37:26.036Z,13.91
2023-04-27T08:39:52.516Z,13.95
2023-04-27T08:42:18.987Z,13.98
2023-04-27T08:44:45.476Z,14.11
2023-04-27T08:47:12.039Z,14.27
2023-04-27T08:49:38.915Z,14.39
2023-04-27T08:52:11.654Z,14.57
2023-04-27T08:54:38.172Z,14.69
2023-04-27T08:57:15.384Z,14.65
2023-04-27T08:59:42.547Z,14.69
2023-04-27T09:02:19.740Z,14.85
2023-04-27T09:04:46.465Z,14.84
2023-04-27T09:07:17.689Z,14.82
2023-04-27T09:09:45.211Z,14.88
2023-04-27T09:12:19.326Z,15.00
2023-04-27T09:15:06.489Z,15.14
2023-04-27T09:17:33.065Z,15.16
2023-04-27T09:20:07.345Z,15.23
2023-04-27T09:22:42.775Z,15.25
2023-04-27T09:25:09.386Z,15.22
2023-04-27T09:27:38.641Z,15.22
2023-04-27T09:30:15.025Z,15.27
2023-04-27T09:32:59.756Z,15.42
2023-04-27T09:35:28.792Z,15.60
2023-04-27T09:37:56.040Z,15.76
2023-04-27T09:40:25.391Z,15.83
2023-04-27T09:42:52.172Z,15.93
2023-04-27T09:45:19.080Z,16.01
2023-04-27T09:47:46.134Z,16.03
2023-04-27T09:50:14.059Z,16.05
2023-04-27T09:52:40.877Z,16.09
2023-04-27T09:55:13.666Z,16.01
2023-04-27T09:58:00.401Z,16.11
2023-04-27T10:00:48.518Z,16.04
2023-04-27T10:03:33.246Z,16.10
2023-04-27T10:06:27.482Z,16.15
2023-04-27T10:08:55.840Z,16.28
2023-04-27T10:11:37.863Z,16.37
2023-04-27T10:14:07.330Z,16.47
2023-04-27T10:16:47.388Z,16.55
2023-04-27T10:19:14.309Z,16.75
2023-04-27T10:22:01.227Z,17.05
2023-04-27T10:24:41.599Z,17.43
2023-04-27T10:27:15.973Z,17.40
2023-04-27T10:29:44.172Z,17.21
2023-04-27T10:32:13.381Z,17.06
2023-04-27T10:34:40.566Z,16.87
2023-04-27T10:37:11.138Z,17.31
2023-04-27T10:39:47.676Z,19.39
2023-04-27T10:42:26.795Z,21.46
2023-04-27T10:44:57.125Z,23.19
2023-04-27T10:47:23.707Z,25.06
2023-04-27T10:49:53.897Z,26.87
2023-04-27T10:52:20.488Z,27.40
2023-04-27T10:54:47.075Z,27.37
2023-04-27T10:57:14.384Z,26.60
2023-04-27T10:59:51.927Z,25.54
2023-04-27T11:02:25.976Z,24.62
2023-04-27T11:04:52.607Z,23.61
2023-04-27T11:07:26.722Z,22.77
2023-04-27T11:09:53.633Z,22.68
2023-04-27T11:12:20.208Z,22.25
2023-04-27T11:14:46.734Z,21.21
2023-04-27T11:17:13.423Z,20.64
2023-04-27T11:19:47.496Z,20.39
2023-04-27T11:22:15.439Z,20.24
2023-04-27T11:24:52.529Z,20.16
2023-04-27T11:27:19.792Z,20.10
2023-04-27T11:29:46.314Z,19.95
2023-04-27T11:32:19.743Z,19.57
2023-04-27T11:34:54.751Z,19.36
2023-04-27T11:37:24.834Z,19.29
2023-04-27T11:39:52.212Z,19.20
2023-04-27T11:42:20.015Z,19.06
2023-04-27T11:45:00.682Z,18.85
2023-04-27T11:47:29.788Z,18.43
2023-04-27T11:49:58.643Z,18.16
2023-04-27T11:52:32.794Z,18.01
2023-04-27T11:55:01.029Z,17.64
2023-04-27T11:57:30.244Z,17.30
2023-04-27T11:59:58.266Z,17.09
2023-04-27T12:02:24.801Z,16.97
2023-04-27T12:04:51.908Z,16.99
2023-04-27T12:07:19.484Z,17.02
2023-04-27T12:09:46.082Z,17.12
2023-04-27T12:12:13.215Z,17.08
2023-04-27T12:14:40.043Z,16.96
2023-04-27T12:17:06.639Z,16.85
2023-04-27T12:19:33.300Z,16.87
2023-04-27T12:21:59.883Z,16.93
2023-04-27T12:24:26.342Z,16.87
2023-04-27T12:26:52.877Z,16.67
2023-04-27T12:29:19.514Z,16.59
2023-04-27T12:31:46.269Z,16.48
2023-04-27T12:34:13.110Z,16.39
2023-04-27T12:36:39.861Z,16.44
2023-04-27T12:39:17.893Z,16.61
2023-04-27T12:41:45.471Z,16.78
2023-04-27T12:44:13.336Z,16.83
2023-04-27T12:46:41.240Z,16.86
2023-04-27T12:49:08.558Z,17.09
2023-04-27T12:51:35.598Z,17.37
2023-04-27T12:54:06.136Z,17.50
2023-04-27T12:56:33.479Z,17.50
2023-04-27T12:58:59.951Z,17.54
2023-04-27T13:01:27.141Z,17.75
2023-04-27T13:03:55.150Z,18.03
2023-04-27T13:06:22.127Z,18.19
2023-04-27T13:08:49.761Z,18.08
2023-04-27T13:11:16.985Z,18.03
2023-04-27T13:13:44.546Z,17.91
2023-04-27T13:16:11.914Z,17.85
2023-04-27T13:18:39.352Z,17.76
2023-04-27T13:21:05.898Z,17.70
2023-04-27T13:23:32.693Z,17.69
2023-04-27T13:25:59.176Z,17.80
2023-04-27T13:28:25.743Z,18.00
2023-04-27T13:30:52.251Z,18.18
2023-04-27T13:33:23.385Z,18.29
2023-04-27T13:35:50.808Z,18.42
2023-04-27T13:38:17.465Z,18.68
2023-04-27T13:40:44.078Z,18.80
2023-04-27T13:43:10.552Z,18.66
2023-04-27T13:45:37.202Z,18.49
2023-04-27T13:48:03.821Z,18.27
2023-04-27T13:50:30.368Z,18.00
2023-04-27T13:52:56.881Z,17.90
2023-04-27T13:55:23.537Z,17.75
2023-04-27T13:57:49.998Z,17.69
2023-04-27T14:00:16.916Z,17.67
2023-04-27T14:02:43.540Z,17.61
2023-04-27T14:05:10.210Z,17.55
2023-04-27T14:07:36.904Z,17.51
2023-04-27T14:10:04.557Z,17.55
2023-04-27T14:12:31.991Z,17.55
2023-04-27T14:14:59.176Z,17.33
2023-04-27T14:17:25.682Z,17.44
2023-04-27T14:19:52.251Z,17.83
2023-04-27T14:22:18.773Z,18.09
2023-04-27T14:24:45.291Z,18.19
2023-04-27T14:27:11.767Z,18.22
2023-04-27T14:29:38.347Z,18.01
2023-04-27T14:32:05.065Z,17.82
2023-04-27T14:34:31.658Z,17.65
2023-04-27T14:36:58.166Z,17.51
2023-04-27T14:39:24.622Z,17.47
2023-04-27T14:41:51.095Z,17.59
2023-04-27T14:44:17.568Z,17.70
2023-04-27T14:46:44.130Z,17.76
2023-04-27T14:49:10.886Z,17.72
2023-04-27T14:51:37.371Z,17.68
2023-04-27T14:54:03.937Z,17.62
2023-04-27T14:56:30.615Z,17.61
2023-04-27T14:58:57.224Z,17.58
2023-04-27T15:01:23.739Z,17.53
2023-04-27T15:03:50.386Z,17.49
2023-04-27T15:06:16.945Z,17.40
2023-04-27T15:08:43.675Z,17.28
2023-04-27T15:11:10.202Z,17.10
2023-04-27T15:13:36.697Z,16.97
2023-04-27T15:16:03.300Z,16.93
2023-04-27T15:18:29.809Z,16.92
2023-04-27T15:20:58.084Z,16.95
2023-04-27T15:23:26.227Z,16.88
2023-04-27T15:25:57.294Z,16.94
2023-04-27T15:28:23.990Z,16.95
2023-04-27T15:30:50.615Z,16.87
2023-04-27T15:33:17.625Z,16.76
2023-04-27T15:35:44.311Z,16.61
2023-04-27T15:38:12.671Z,16.51
2023-04-27T15:40:39.829Z,16.43
2023-04-27T15:43:06.666Z,16.32
2023-04-27T15:45:33.605Z,16.18
2023-04-27T15:48:00.180Z,16.06
2023-04-27T15:50:26.694Z,15.95
2023-04-27T15:52:53.445Z,15.92
2023-04-27T15:55:19.947Z,15.88
2023-04-27T15:57:46.447Z,15.81
2023-04-27T16:00:13.619Z,15.84
2023-04-27T16:02:40.612Z,16.06
2023-04-27T16:05:08.499Z,16.15
2023-04-27T16:07:36.186Z,16.26
2023-04-27T16:10:03.904Z,16.16
2023-04-27T16:12:30.513Z,15.94
2023-04-27T16:14:57.242Z,15.69
2023-04-27T16:17:24.871Z,15.44
2023-04-27T16:19:51.395Z,15.23
2023-04-27T16:22:17.878Z,15.12
2023-04-27T16:24:44.527Z,15.01
2023-04-27T16:27:11.057Z,14.88
2023-04-27T16:29:37.530Z,14.78
2023-04-27T16:32:04.131Z,14.64
2023-04-27T16:34:30.641Z,14.55
2023-04-27T16:36:57.144Z,14.50
2023-04-27T16:39:23.602Z,14.39
2023-04-27T16:41:50.132Z,14.29
2023-04-27T16:44:16.655Z,14.18
2023-04-27T16:46:43.345Z,14.11
2023-04-27T16:49:10.238Z,14.02
2023-04-27T16:51:36.721Z,13.93
2023-04-27T16:54:03.273Z,13.84
2023-04-27T16:56:32.092Z,13.76
2023-04-27T16:58:58.878Z,13.68
2023-04-27T17:01:25.628Z,13.59
2023-04-27T17:03:52.256Z,13.53
2023-04-27T17:06:18.938Z,13.50
2023-04-27T17:08:45.446Z,13.43
2023-04-27T17:11:12.158Z,13.38
2023-04-27T17:13:38.674Z,13.34
2023-04-27T17:16:05.532Z,13.30
2023-04-27T17:18:32.171Z,13.23
2023-04-27T17:20:58.678Z,13.18
2023-04-27T17:23:25.290Z,13.16
2023-04-27T17:25:51.737Z,13.15
2023-04-27T17:28:18.221Z,13.15
2023-04-27T17:30:44.739Z,13.10
2023-04-27T17:33:11.341Z,13.03
2023-04-27T17:35:37.890Z,13.00
2023-04-27T17:38:04.407Z,12.96
2023-04-27T17:40:30.941Z,12.93
2023-04-27T17:42:57.479Z,12.90
2023-04-27T17:45:24.024Z,12.83
2023-04-27T17:47:50.512Z,12.76
2023-04-27T17:50:17.318Z,12.71
2023-04-27T17:52:43.776Z,12.66
2023-04-27T17:55:10.240Z,12.61
2023-04-27T17:57:36.705Z,12.56
2023-04-27T18:00:03.433Z,12.50
2023-04-27T18:02:30.021Z,12.42
2023-04-27T18:04:56.615Z,12.36
2023-04-27T18:07:23.421Z,12.29
2023-04-27T18:09:49.926Z,12.22
2023-04-27T18:12:16.433Z,12.17
2023-04-27T18:14:42.923Z,12.11
2023-04-27T18:17:09.399Z,12.05
2023-04-27T18:19:35.848Z,12.00
2023-04-27T18:22:02.356Z,11.92
2023-04-27T18:24:28.890Z,11.86
2023-04-27T18:26:55.352Z,11.78
2023-04-27T18:29:21.877Z,11.71
2023-04-27T18:31:48.402Z,11.64
2023-04-27T18:34:14.880Z,11.56
2023-04-27T18:36:42.383Z,11.49
2023-04-27T18:39:08.874Z,11.39
2023-04-27T18:41:35.403Z,11.31
2023-04-27T18:44:05.766Z,11.24
2023-04-27T18:46:32.975Z,11.16
2023-04-27T18:49:01.045Z,11.07
2023-04-27T18:51:27.899Z,10.99
2023-04-27T18:53:57.528Z,10.92
2023-04-27T18:56:24.214Z,10.84
2023-04-27T18:58:50.738Z,10.76
2023-04-27T19:01:22.142Z,10.67
2023-04-27T19:03:48.933Z,10.59
2023-04-27T19:06:15.887Z,10.51
2023-04-27T19:08:43.695Z,10.46
2023-04-27T19:11:11.331Z,10.41
2023-04-27T19:13:37.952Z,10.34
2023-04-27T19:16:04.612Z,10.27
2023-04-27T19:18:31.176Z,10.22
2023-04-27T19:20:57.690Z,10.15
2023-04-27T19:23:24.197Z,10.09
2023-04-27T19:25:51.849Z,10.02
2023-04-27T19:28:21.624Z,9.96
2023-04-27T19:30:48.998Z,9.89
2023-04-27T19:33:16.564Z,9.84
2023-04-27T19:35:44.078Z,9.77
2023-04-27T19:38:10.775Z,9.72
2023-04-27T19:40:37.259Z,9.67
2023-04-27T19:43:04.026Z,9.62
2023-04-27T19:45:30.615Z,9.56
2023-04-27T19:47:57.182Z,9.47
2023-04-27T19:50:23.719Z,9.41
2023-04-27T19:52:50.731Z,9.33
2023-04-27T19:55:17.371Z,9.27
2023-04-27T19:57:43.832Z,9.19
2023-04-27T20:00:10.848Z,9.12
2023-04-27T20:02:37.599Z,9.06
2023-04-27T20:05:05.235Z,9.02
2023-04-27T20:07:32.058Z,8.96
2023-04-27T20:09:58.518Z,8.93
2023-04-27T20:12:44.059Z,8.88
2023-04-27T20:15:11.475Z,8.83
2023-04-27T20:17:38.016Z,8.78
2023-04-27T20:20:04.913Z,8.73
2023-04-27T20:22:31.460Z,8.68
2023-04-27T20:24:58.855Z,8.63
2023-04-27T20:27:25.383Z,8.58
2023-04-27T20:29:51.872Z,8.53
2023-04-27T20:32:18.435Z,8.49
2023-04-27T20:34:44.910Z,8.44
2023-04-27T20:37:11.369Z,8.39
2023-04-27T20:39:37.873Z,8.36
2023-04-27T20:42:04.474Z,8.30
2023-04-27T20:44:30.987Z,8.26
2023-04-27T20:46:57.545Z,8.21
2023-04-27T20:49:34.416Z,8.14
2023-04-27T20:52:01.759Z,8.08
2023-04-27T20:54:28.434Z,8.01
2023-04-27T20:56:54.973Z,7.96
2023-04-27T20:59:21.516Z,7.90
2023-04-27T21:01:47.986Z,7.87
2023-04-27T21:04:14.815Z,7.82
2023-04-27T21:06:41.515Z,7.75
2023-04-27T21:09:08.053Z,7.68
2023-04-27T21:11:34.504Z,7.63
2023-04-27T21:14:00.994Z,7.58
2023-04-27T21:16:27.524Z,7.56
2023-04-27T21:18:54.533Z,7.53
2023-04-27T21:21:20.995Z,7.49
2023-04-27T21:23:49.871Z,7.43
2023-04-27T21:26:20.955Z,7.39
2023-04-27T21:28:47.437Z,7.37
2023-04-27T21:31:14.028Z,7.32
2023-04-27T21:33:40.564Z,7.30
2023-04-27T21:36:07.180Z,7.27
2023-04-27T21:38:33.648Z,7.23
2023-04-27T21:41:00.177Z,7.19
2023-04-27T21:43:26.674Z,7.15
2023-04-27T21:45:53.208Z,7.11
2023-04-27T21:48:19.714Z,7.05
2023-04-27T21:50:46.205Z,7.01
2023-04-27T21:53:12.663Z,6.97
2023-04-27T21:55:39.161Z,6.94
2023-04-27T21:58:05.649Z,6.91
2023-04-27T22:00:32.167Z,6.87
2023-04-27T22:02:59.098Z,6.84
2023-04-27T22:05:25.701Z,6.81
2023-04-27T22:07:52.212Z,6.77
2023-04-27T22:10:18.750Z,6.74
2023-04-27T22:12:45.245Z,6.72
2023-04-27T22:15:11.716Z,6.69
2023-04-27T22:17:38.280Z,6.62
2023-04-27T22:20:06.139Z,6.59
2023-04-27T22:22:32.644Z,6.54
2023-04-27T22:24:59.174Z,6.49
2023-04-27T22:27:29.984Z,6.44
2023-04-27T22:30:01.978Z,6.41
2023-04-27T22:32:28.861Z,6.37
2023-04-27T22:34:55.449Z,6.34
2023-04-27T22:37:21.962Z,6.33
2023-04-27T22:39:48.682Z,6.31
2023-04-27T22:42:15.229Z,6.29
2023-04-27T22:44:41.838Z,6.25
2023-04-27T22:47:08.545Z,6.22
2023-04-27T22:49:35.075Z,6.19
2023-04-27T22:52:01.548Z,6.16
2023-04-27T22:54:28.170Z,6.14
2023-04-27T22:56:54.827Z,6.08
2023-04-27T22:59:21.365Z,6.05
2023-04-27T23:01:48.100Z,6.03
2023-04-27T23:04:14.910Z,6.00
2023-04-27T23:06:41.645Z,5.96
2023-04-27T23:09:08.384Z,5.92
2023-04-27T23:11:34.901Z,5.88
2023-04-27T23:14:01.360Z,5.85
2023-04-27T23:16:27.884Z,5.81
2023-04-27T23:18:54.471Z,5.79
2023-04-27T23:21:20.942Z,5.77
2023-04-27T23:23:47.538Z,5.76
2023-04-27T23:26:14.795Z,5.76
2023-04-27T23:28:41.471Z,5.72
2023-04-27T23:31:08.453Z,5.68
2023-04-27T23:33:35.401Z,5.65
2023-04-27T23:36:02.301Z,5.63
2023-04-27T23:38:28.799Z,5.62
2023-04-27T23:40:55.333Z,5.62
2023-04-27T23:43:21.796Z,5.62
2023-04-27T23:45:52.378Z,5.61
2023-04-27T23:48:19.635Z,5.62
2023-04-27T23:50:46.184Z,5.63
2023-04-27T23:53:12.743Z,5.63
2023-04-27T23:55:39.225Z,5.63
2023-04-27T23:58:05.716Z,5.63
